createdAt,value
2018-12-15T00:02:05.525Z,103186.92
2018-12-15T00:04:34.631Z,103188.04
2018-12-15T00:07:03.710Z,103185.66
2018-12-15T00:09:32.788Z,103188.77
2018-12-15T00:12:01.889Z,103183.98
2018-12-15T00:14:30.971Z,103189.05
2018-12-15T00:17:05.545Z,103193.41
2018-12-15T00:19:29.196Z,103186.90
2018-12-15T00:21:58.498Z,103189.13
2018-12-15T00:24:27.343Z,103187.66
2018-12-15T00:26:56.450Z,103185.01
2018-12-15T00:29:25.547Z,103182.70
2018-12-15T00:31:54.602Z,103177.75
2018-12-15T00:34:23.718Z,103178.48
2018-12-15T00:36:52.802Z,103182.59
2018-12-15T00:39:21.882Z,103180.48
2018-12-15T00:41:51.251Z,103182.89
2018-12-15T00:44:20.325Z,103182.30
2018-12-15T00:46:49.387Z,103182.75
2018-12-15T00:49:18.477Z,103186.86
2018-12-15T00:51:47.551Z,103189.47
2018-12-15T00:54:16.667Z,103194.50
2018-12-15T00:56:51.130Z,103195.52
2018-12-15T00:59:20.222Z,103193.71
2018-12-15T01:01:49.286Z,103197.19
2018-12-15T01:04:18.414Z,103195.50
2018-12-15T01:06:47.494Z,103198.13
2018-12-15T01:09:16.559Z,103196.83
2018-12-15T01:11:45.668Z,103196.11
2018-12-15T01:14:14.739Z,103193.89
2018-12-15T01:16:43.809Z,103194.68
2018-12-15T01:19:12.904Z,103190.48
2018-12-15T01:21:41.995Z,103192.60
2018-12-15T01:24:11.063Z,103198.53
2018-12-15T01:26:53.348Z,103199.72
2018-12-15T01:29:22.420Z,103201.70
2018-12-15T01:31:51.491Z,103200.18
2018-12-15T01:34:20.596Z,103199.30
2018-12-15T01:36:49.676Z,103200.07
2018-12-15T01:39:19.690Z,103202.53
2018-12-15T01:41:47.868Z,103195.87
2018-12-15T01:44:16.932Z,103197.88
2018-12-15T01:46:46.013Z,103194.50
2018-12-15T01:49:15.128Z,103194.17
2018-12-15T01:51:44.197Z,103191.67
2018-12-15T01:54:13.275Z,103195.92
2018-12-15T01:56:42.376Z,103196.06
2018-12-15T01:59:11.451Z,103190.42
2018-12-15T02:01:40.529Z,103189.48
2018-12-15T02:04:09.622Z,103193.30
2018-12-15T02:06:38.696Z,103187.16
2018-12-15T02:09:07.789Z,103186.34
2018-12-15T02:11:36.933Z,103194.71
2018-12-15T02:14:06.007Z,103190.60
2018-12-15T02:16:35.078Z,103188.04
2018-12-15T02:19:04.263Z,103188.16
2018-12-15T02:21:33.328Z,103179.92
2018-12-15T02:24:02.393Z,103185.08
2018-12-15T02:26:31.497Z,103179.64
2018-12-15T02:29:00.558Z,103179.81
2018-12-15T02:31:29.641Z,103180.21
2018-12-15T02:33:58.771Z,103181.14
2018-12-15T02:36:27.842Z,103177.20
2018-12-15T02:38:56.921Z,103177.27
2018-12-15T02:41:26.028Z,103186.25
2018-12-15T02:43:55.099Z,103179.46
2018-12-15T02:46:24.217Z,103180.70
2018-12-15T02:48:53.314Z,103180.11
2018-12-15T02:51:22.382Z,103177.48
2018-12-15T02:53:51.453Z,103182.56
2018-12-15T02:56:20.594Z,103187.08
2018-12-15T02:58:49.660Z,103193.07
2018-12-15T03:01:18.741Z,103183.17
2018-12-15T03:03:47.820Z,103185.11
2018-12-15T03:06:17.922Z,103184.48
2018-12-15T03:08:46.981Z,103186.71
2018-12-15T03:11:16.153Z,103189.17
2018-12-15T03:13:45.228Z,103183.40
2018-12-15T03:16:14.283Z,103188.83
2018-12-15T03:18:43.499Z,103185.31
2018-12-15T03:21:12.566Z,103185.16
2018-12-15T03:23:41.640Z,103181.28
2018-12-15T03:26:10.729Z,103182.77
2018-12-15T03:28:39.807Z,103184.66
2018-12-15T03:31:08.876Z,103186.72
2018-12-15T03:33:37.979Z,103183.94
2018-12-15T03:36:07.049Z,103176.68
2018-12-15T03:38:36.110Z,103182.70
2018-12-15T03:41:05.238Z,103183.96
2018-12-15T03:43:34.315Z,103186.49
2018-12-15T03:46:03.386Z,103183.63
2018-12-15T03:48:32.486Z,103187.08
2018-12-15T03:51:01.562Z,103181.74
2018-12-15T03:53:30.695Z,103181.19
2018-12-15T03:56:00.072Z,103182.98
2018-12-15T03:58:29.201Z,103177.69
2018-12-15T04:00:58.266Z,103185.38
2018-12-15T04:03:27.389Z,103181.70
2018-12-15T04:05:56.454Z,103185.01
2018-12-15T04:08:25.519Z,103181.92
2018-12-15T04:10:54.611Z,103186.41
2018-12-15T04:13:23.679Z,103191.63
2018-12-15T04:15:52.742Z,103190.92
2018-12-15T04:18:21.835Z,103185.13
2018-12-15T04:20:50.898Z,103190.11
2018-12-15T04:23:19.969Z,103188.27
2018-12-15T04:25:49.198Z,103193.39
2018-12-15T04:28:18.271Z,103190.60
2018-12-15T04:30:47.354Z,103195.22
2018-12-15T04:33:16.439Z,103192.94
2018-12-15T04:35:45.507Z,103190.90
2018-12-15T04:38:14.571Z,103193.02
2018-12-15T04:40:43.659Z,103194.80
2018-12-15T04:43:12.727Z,103202.73
2018-12-15T04:45:41.798Z,103192.63
2018-12-15T04:48:11.240Z,103195.55
2018-12-15T04:50:39.988Z,103202.51
2018-12-15T04:53:09.061Z,103198.97
2018-12-15T04:55:38.168Z,103194.66
2018-12-15T04:58:07.227Z,103201.65
2018-12-15T05:00:36.297Z,103202.79
2018-12-15T05:03:05.393Z,103199.92
2018-12-15T05:05:34.456Z,103201.06
2018-12-15T05:08:03.526Z,103205.16
2018-12-15T05:10:32.664Z,103202.00
2018-12-15T05:13:01.915Z,103203.33
2018-12-15T05:15:30.981Z,103199.20
2018-12-15T05:18:00.089Z,103197.64
2018-12-15T05:20:29.165Z,103197.13
2018-12-15T05:22:58.232Z,103203.05
2018-12-15T05:25:27.340Z,103197.17
2018-12-15T05:27:56.428Z,103196.16
2018-12-15T05:30:25.493Z,103195.13
2018-12-15T05:32:54.778Z,103194.66
2018-12-15T05:35:23.858Z,103195.09
2018-12-15T05:37:52.931Z,103195.20
2018-12-15T05:40:22.028Z,103194.98
2018-12-15T05:42:51.095Z,103195.22
2018-12-15T05:45:20.162Z,103192.20
2018-12-15T05:47:49.250Z,103198.45
2018-12-15T05:50:18.315Z,103194.66
2018-12-15T05:52:47.374Z,103191.11
2018-12-15T05:55:16.480Z,103194.56
2018-12-15T05:57:45.545Z,103203.00
2018-12-15T06:00:14.617Z,103201.12
2018-12-15T06:02:43.708Z,103206.02
2018-12-15T06:05:12.778Z,103208.90
2018-12-15T06:07:41.850Z,103208.69
2018-12-15T06:10:11.022Z,103214.86
2018-12-15T06:12:40.086Z,103213.77
2018-12-15T06:15:09.155Z,103208.20
2018-12-15T06:17:38.347Z,103208.78
2018-12-15T06:20:07.414Z,103210.32
2018-12-15T06:22:36.583Z,103213.09
2018-12-15T06:25:05.694Z,103208.58
2018-12-15T06:27:34.769Z,103209.30
2018-12-15T06:30:03.827Z,103210.98
2018-12-15T06:32:32.915Z,103210.86
2018-12-15T06:35:02.004Z,103218.48
2018-12-15T06:37:31.054Z,103214.48
2018-12-15T06:40:00.187Z,103217.36
2018-12-15T06:42:29.258Z,103212.56
2018-12-15T06:44:58.326Z,103214.59
2018-12-15T06:47:27.420Z,103216.72
2018-12-15T06:49:56.472Z,103219.83
2018-12-15T06:52:25.542Z,103220.47
2018-12-15T06:54:54.657Z,103217.27
2018-12-15T06:57:23.715Z,103214.64
2018-12-15T06:59:52.777Z,103217.16
2018-12-15T07:02:21.891Z,103223.50
2018-12-15T07:04:50.945Z,103225.41
2018-12-15T07:07:20.014Z,103221.30
2018-12-15T07:09:49.103Z,103229.99
2018-12-15T07:12:18.165Z,103226.53
2018-12-15T07:14:47.237Z,103232.81
2018-12-15T07:17:16.324Z,103230.58
2018-12-15T07:19:45.386Z,103235.87
2018-12-15T07:22:14.448Z,103229.09
2018-12-15T07:24:43.931Z,103230.56
2018-12-15T07:27:12.992Z,103231.77
2018-12-15T07:29:42.063Z,103233.94
2018-12-15T07:32:11.156Z,103235.27
2018-12-15T07:34:40.225Z,103237.00
2018-12-15T07:37:09.288Z,103240.63
2018-12-15T07:39:38.380Z,103241.58
2018-12-15T07:42:07.443Z,103240.13
2018-12-15T07:44:36.503Z,103236.11
2018-12-15T07:47:05.636Z,103240.27
2018-12-15T07:49:34.703Z,103233.06
2018-12-15T07:52:03.771Z,103237.03
2018-12-15T07:54:32.889Z,103237.10
2018-12-15T07:57:01.953Z,103240.53
2018-12-15T07:59:31.011Z,103242.53
2018-12-15T08:02:00.144Z,103242.58
2018-12-15T08:04:29.204Z,103247.53
2018-12-15T08:07:10.600Z,103250.72
2018-12-15T08:09:39.669Z,103250.48
2018-12-15T08:12:10.521Z,103258.55
2018-12-15T08:14:39.621Z,103256.25
2018-12-15T08:17:08.685Z,103255.64
2018-12-15T08:19:37.750Z,103263.24
2018-12-15T08:22:06.853Z,103266.39
2018-12-15T08:24:35.923Z,103269.02
2018-12-15T08:27:05.002Z,103270.79
2018-12-15T08:29:34.213Z,103272.94
2018-12-15T08:32:03.288Z,103278.33
2018-12-15T08:34:32.373Z,103281.76
2018-12-15T08:37:01.462Z,103273.81
2018-12-15T08:39:30.524Z,103281.10
2018-12-15T08:41:59.586Z,103276.74
2018-12-15T08:44:28.687Z,103280.56
2018-12-15T08:46:57.743Z,103281.76
2018-12-15T08:49:26.799Z,103282.91
2018-12-15T08:51:55.939Z,103277.94
2018-12-15T08:54:25.009Z,103281.00
2018-12-15T08:56:54.095Z,103284.90
2018-12-15T08:59:23.198Z,103278.64
2018-12-15T09:01:52.286Z,103283.44
2018-12-15T09:04:21.362Z,103284.94
2018-12-15T09:06:50.461Z,103281.65
2018-12-15T09:09:19.524Z,103285.70
2018-12-15T09:11:48.603Z,103289.28
2018-12-15T09:14:17.711Z,103288.09
2018-12-15T09:16:50.518Z,103283.08
2018-12-15T09:19:19.624Z,103291.98
2018-12-15T09:21:48.717Z,103290.17
2018-12-15T09:24:17.787Z,103288.65
2018-12-15T09:26:47.009Z,103284.35
2018-12-15T09:29:16.086Z,103287.06
2018-12-15T09:31:45.130Z,103284.02
2018-12-15T09:34:14.248Z,103283.72
2018-12-15T09:36:50.180Z,103287.27
2018-12-15T09:39:19.293Z,103277.84
2018-12-15T09:41:48.361Z,103286.11
2018-12-15T09:44:17.415Z,103287.69
2018-12-15T09:46:46.500Z,103281.97
2018-12-15T09:49:17.939Z,103286.04
2018-12-15T09:51:44.646Z,103283.48
2018-12-15T09:54:13.752Z,103282.13
2018-12-15T09:56:42.827Z,103284.53
2018-12-15T09:59:11.898Z,103281.41
2018-12-15T10:01:41.214Z,103282.21
2018-12-15T10:04:10.279Z,103281.28
2018-12-15T10:06:39.347Z,103282.00
2018-12-15T10:09:08.454Z,103281.78
2018-12-15T10:11:37.505Z,103281.79
2018-12-15T10:14:06.566Z,103281.70
2018-12-15T10:16:35.696Z,103273.91
2018-12-15T10:19:04.760Z,103276.30
2018-12-15T10:21:33.847Z,103273.83
2018-12-15T10:24:03.018Z,103276.33
2018-12-15T10:26:32.092Z,103280.02
2018-12-15T10:29:01.160Z,103268.39
2018-12-15T10:34:14.947Z,103260.36
2018-12-15T10:36:47.817Z,103262.06
2018-12-15T10:39:16.884Z,103264.09
2018-12-15T10:41:45.949Z,103261.50
2018-12-15T10:44:15.030Z,103256.45
2018-12-15T10:46:44.089Z,103256.33
2018-12-15T10:49:13.157Z,103252.67
2018-12-15T10:51:42.283Z,103252.92
2018-12-15T10:54:11.355Z,103246.08
2018-12-15T10:56:44.307Z,103243.01
2018-12-15T10:59:13.373Z,103238.97
2018-12-15T11:01:42.441Z,103236.19
2018-12-15T11:04:11.537Z,103239.96
2018-12-15T11:06:40.647Z,103234.38
2018-12-15T11:09:09.706Z,103232.91
2018-12-15T11:11:38.805Z,103232.23
2018-12-15T11:14:07.874Z,103225.91
2018-12-15T11:19:37.180Z,103226.66
2018-12-15T11:22:03.640Z,103217.76
2018-12-15T11:24:32.704Z,103218.63
2018-12-15T11:27:01.765Z,103214.33
2018-12-15T11:29:30.885Z,103217.30
2018-12-15T11:31:59.951Z,103215.34
2018-12-15T11:34:29.026Z,103212.83
2018-12-15T11:36:58.129Z,103215.94
2018-12-15T11:39:27.205Z,103217.34
2018-12-15T11:41:56.267Z,103217.70
2018-12-15T11:44:25.363Z,103217.52
2018-12-15T11:46:54.423Z,103218.59
2018-12-15T11:49:23.475Z,103212.80
2018-12-15T11:51:52.557Z,103212.91
2018-12-15T11:54:21.630Z,103215.19
2018-12-15T11:56:50.686Z,103218.72
2018-12-15T11:59:19.798Z,103214.50
2018-12-15T12:01:48.864Z,103218.95
2018-12-15T12:04:17.916Z,103209.39
2018-12-15T12:06:47.002Z,103205.61
2018-12-15T12:09:16.066Z,103206.91
2018-12-15T12:11:45.129Z,103207.08
2018-12-15T12:14:14.225Z,103200.03
2018-12-15T12:16:43.340Z,103199.55
2018-12-15T12:19:12.353Z,103197.45
2018-12-15T12:21:41.486Z,103203.78
2018-12-15T12:24:10.557Z,103209.53
2018-12-15T12:26:39.620Z,103206.31
2018-12-15T12:29:08.700Z,103203.23
2018-12-15T12:31:37.755Z,103202.42
2018-12-15T12:34:06.806Z,103202.05
2018-12-15T12:36:35.891Z,103196.52
2018-12-15T12:39:04.962Z,103192.61
2018-12-15T12:41:34.026Z,103190.05
2018-12-15T12:44:03.153Z,103190.02
2018-12-15T12:46:32.215Z,103198.17
2018-12-15T12:49:01.271Z,103187.24
2018-12-15T12:51:30.367Z,103189.36
2018-12-15T12:53:59.432Z,103199.09
2018-12-15T12:56:28.494Z,103195.69
2018-12-15T12:58:57.578Z,103196.31
2018-12-15T13:01:26.632Z,103199.13
2018-12-15T13:03:55.703Z,103204.38
2018-12-15T13:06:24.818Z,103197.25
2018-12-15T13:08:53.900Z,103203.00
2018-12-15T13:11:22.977Z,103203.89
2018-12-15T13:13:52.094Z,103205.64
2018-12-15T13:16:21.179Z,103198.22
2018-12-15T13:18:50.250Z,103199.53
2018-12-15T13:21:19.379Z,103205.83
2018-12-15T13:23:48.458Z,103202.23
2018-12-15T13:26:17.538Z,103203.10
2018-12-15T13:28:46.946Z,103206.77
2018-12-15T13:31:16.014Z,103199.83
2018-12-15T13:33:45.117Z,103203.17
2018-12-15T13:36:14.210Z,103199.48
2018-12-15T13:38:43.290Z,103206.86
2018-12-15T13:41:12.355Z,103207.50
2018-12-15T13:43:41.464Z,103202.81
2018-12-15T13:46:10.540Z,103198.72
2018-12-15T13:48:39.613Z,103204.05
2018-12-15T13:51:08.761Z,103206.65
2018-12-15T13:53:37.835Z,103203.66
2018-12-15T13:56:23.613Z,103199.07
2018-12-15T13:58:52.687Z,103201.75
2018-12-15T14:01:21.770Z,103197.44
2018-12-15T14:03:50.890Z,103205.27
2018-12-15T14:06:19.952Z,103208.73
2018-12-15T14:08:49.024Z,103204.03
2018-12-15T14:11:18.126Z,103203.55
2018-12-15T14:13:47.198Z,103205.39
2018-12-15T14:16:28.647Z,103209.39
2018-12-15T14:18:57.715Z,103208.19
2018-12-15T14:21:26.775Z,103207.39
2018-12-15T14:23:55.880Z,103209.59
2018-12-15T14:26:24.956Z,103205.30
2018-12-15T14:28:54.047Z,103210.56
2018-12-15T14:31:23.243Z,103204.08
2018-12-15T14:33:52.423Z,103202.64
2018-12-15T14:36:21.514Z,103203.98
2018-12-15T14:38:50.608Z,103196.48
2018-12-15T14:41:19.670Z,103197.23
2018-12-15T14:43:48.735Z,103201.02
2018-12-15T14:46:17.847Z,103198.92
2018-12-15T14:48:46.923Z,103196.30
2018-12-15T14:51:15.995Z,103195.50
2018-12-15T14:53:45.133Z,103196.88
2018-12-15T14:56:14.204Z,103194.94
2018-12-15T14:58:43.300Z,103193.61
2018-12-15T15:01:12.497Z,103197.89
2018-12-15T15:03:41.578Z,103192.07
2018-12-15T15:06:15.332Z,103191.95
2018-12-15T15:08:44.400Z,103190.28
2018-12-15T15:11:13.482Z,103189.55
2018-12-15T15:13:42.616Z,103191.31
2018-12-15T15:16:26.472Z,103185.67
2018-12-15T15:18:55.806Z,103185.47
2018-12-15T15:21:24.873Z,103186.14
2018-12-15T15:23:53.933Z,103181.25
2018-12-15T15:26:23.020Z,103179.50
2018-12-15T15:28:52.109Z,103186.19
2018-12-15T15:31:21.184Z,103178.83
2018-12-15T15:33:50.291Z,103183.92
2018-12-15T15:36:24.075Z,103175.72
2018-12-15T15:38:53.169Z,103174.57
2018-12-15T15:41:22.243Z,103174.10
2018-12-15T15:43:51.315Z,103174.00
2018-12-15T15:46:20.407Z,103166.26
2018-12-15T15:48:49.483Z,103169.27
2018-12-15T15:51:18.557Z,103162.06
2018-12-15T15:53:47.692Z,103158.64
2018-12-15T15:56:16.773Z,103160.35
2018-12-15T15:58:45.847Z,103153.92
2018-12-15T16:01:14.955Z,103156.16
2018-12-15T16:03:44.028Z,103154.17
2018-12-15T16:06:26.128Z,103149.21
2018-12-15T16:08:55.197Z,103150.84
2018-12-15T16:11:24.286Z,103148.91
2018-12-15T16:13:53.415Z,103157.25
2018-12-15T16:19:15.889Z,103149.16
2018-12-15T16:21:44.969Z,103152.70
2018-12-15T16:24:14.045Z,103154.69
2018-12-15T16:26:43.226Z,103155.48
2018-12-15T16:29:12.304Z,103151.59
2018-12-15T16:31:41.381Z,103157.41
2018-12-15T16:34:10.505Z,103157.42
2018-12-15T16:36:39.582Z,103159.37
2018-12-15T16:39:08.656Z,103155.05
2018-12-15T16:41:42.149Z,103165.59
2018-12-15T16:44:06.811Z,103154.95
2018-12-15T16:46:35.882Z,103156.63
2018-12-15T16:49:06.011Z,103154.50
2018-12-15T16:51:34.062Z,103154.72
2018-12-15T16:54:03.110Z,103161.67
2018-12-15T16:56:32.250Z,103158.58
2018-12-15T16:59:01.309Z,103158.27
2018-12-15T17:01:30.385Z,103154.80
2018-12-15T17:03:59.480Z,103159.89
2018-12-15T17:06:32.382Z,103154.41
2018-12-15T17:09:01.458Z,103153.19
2018-12-15T17:11:30.533Z,103150.38
2018-12-15T17:13:59.604Z,103154.33
2018-12-15T17:16:28.734Z,103144.75
2018-12-15T17:18:57.797Z,103145.75
2018-12-15T17:21:26.841Z,103153.35
2018-12-15T17:23:55.959Z,103141.94
2018-12-15T17:26:29.859Z,103144.91
2018-12-15T17:28:58.941Z,103139.34
2018-12-15T17:31:28.012Z,103151.57
2018-12-15T17:33:57.071Z,103150.06
2018-12-15T17:36:49.400Z,103141.72
2018-12-15T17:39:18.454Z,103144.26
2018-12-15T17:41:47.520Z,103144.80
2018-12-15T17:44:16.640Z,103141.12
2018-12-15T17:46:45.697Z,103151.41
2018-12-15T17:49:14.796Z,103144.47
2018-12-15T17:51:43.949Z,103152.07
2018-12-15T17:54:13.041Z,103145.46
2018-12-15T17:57:03.676Z,103147.42
2018-12-15T17:59:32.740Z,103148.72
2018-12-15T18:02:01.807Z,103142.59
2018-12-15T18:04:30.936Z,103143.04
2018-12-15T18:07:00.007Z,103135.59
2018-12-15T18:09:29.084Z,103139.70
2018-12-15T18:11:58.185Z,103138.26
2018-12-15T18:14:27.263Z,103139.06
2018-12-15T18:16:56.341Z,103140.08
2018-12-15T18:19:25.555Z,103142.97
2018-12-15T18:21:54.637Z,103140.80
2018-12-15T18:24:23.710Z,103138.20
2018-12-15T18:26:52.824Z,103131.97
2018-12-15T18:29:21.898Z,103133.99
2018-12-15T18:31:50.964Z,103127.91
2018-12-15T18:34:20.054Z,103130.50
2018-12-15T18:36:49.123Z,103124.02
2018-12-15T18:39:18.196Z,103129.39
2018-12-15T18:41:48.977Z,103123.18
2018-12-15T18:44:18.037Z,103123.06
2018-12-15T18:46:47.108Z,103118.14
2018-12-15T18:49:16.208Z,103115.94
2018-12-15T18:51:45.296Z,103110.02
2018-12-15T18:54:14.362Z,103104.01
2018-12-15T18:56:43.448Z,103104.55
2018-12-15T18:59:12.523Z,103100.44
2018-12-15T19:01:41.575Z,103105.00
2018-12-15T19:04:10.694Z,103101.95
2018-12-15T19:06:39.750Z,103104.06
2018-12-15T19:09:08.816Z,103095.94
2018-12-15T19:11:37.917Z,103097.47
2018-12-15T19:14:07.000Z,103093.94
2018-12-15T19:16:36.104Z,103098.03
2018-12-15T19:19:05.213Z,103094.30
2018-12-15T19:21:34.300Z,103101.66
2018-12-15T19:24:03.359Z,103092.36
2018-12-15T19:26:34.471Z,103091.47
2018-12-15T19:29:03.538Z,103088.69
2018-12-15T19:31:32.611Z,103083.91
2018-12-15T19:34:01.703Z,103086.91
2018-12-15T19:36:30.762Z,103084.44
2018-12-15T19:38:59.828Z,103086.17
2018-12-15T19:41:28.930Z,103091.83
2018-12-15T19:43:58.000Z,103093.30
2018-12-15T19:46:32.962Z,103087.81
2018-12-15T19:49:02.026Z,103088.42
2018-12-15T19:51:31.091Z,103086.95
2018-12-15T19:54:00.174Z,103083.69
2018-12-15T19:56:29.245Z,103082.55
2018-12-15T19:58:58.313Z,103083.22
2018-12-15T20:01:27.489Z,103086.16
2018-12-15T20:03:56.553Z,103080.91
2018-12-15T20:06:25.655Z,103072.89
2018-12-15T20:08:54.769Z,103072.12
2018-12-15T20:11:23.881Z,103067.91
2018-12-15T20:13:52.919Z,103072.49
2018-12-15T20:16:22.015Z,103069.31
2018-12-15T20:18:51.090Z,103065.31
2018-12-15T20:21:20.387Z,103064.98
2018-12-15T20:23:49.350Z,103063.45
2018-12-15T20:26:18.422Z,103054.42
2018-12-15T20:28:47.485Z,103057.44
2018-12-15T20:31:16.641Z,103050.94
2018-12-15T20:33:45.722Z,103047.42
2018-12-15T20:36:14.823Z,103051.77
2018-12-15T20:38:43.994Z,103049.03
2018-12-15T20:41:13.065Z,103043.48
2018-12-15T20:43:42.375Z,103046.58
2018-12-15T20:46:11.478Z,103046.58
2018-12-15T20:48:40.545Z,103044.38
2018-12-15T20:51:09.609Z,103042.63
2018-12-15T20:53:38.716Z,103036.69
2018-12-15T20:56:07.779Z,103036.99
2018-12-15T20:58:36.846Z,103034.72
2018-12-15T21:01:05.944Z,103036.52
2018-12-15T21:03:35.015Z,103029.26
2018-12-15T21:06:04.088Z,103026.21
2018-12-15T21:08:34.593Z,103026.21
2018-12-15T21:11:02.238Z,103020.76
2018-12-15T21:13:31.305Z,103014.77
2018-12-15T21:16:00.455Z,103011.22
2018-12-15T21:18:29.457Z,103011.17
2018-12-15T21:20:58.514Z,103017.00
2018-12-15T21:23:27.608Z,103017.36
2018-12-15T21:25:56.679Z,103011.00
2018-12-15T21:28:25.759Z,103011.97
2018-12-15T21:30:54.839Z,103004.79
2018-12-15T21:33:23.902Z,102998.87
2018-12-15T21:35:52.968Z,103001.64
2018-12-15T21:38:22.071Z,102991.37
2018-12-15T21:40:51.144Z,102991.20
2018-12-15T21:43:20.218Z,102980.89
2018-12-15T21:45:49.395Z,102980.83
2018-12-15T21:48:18.464Z,102981.73
2018-12-15T21:50:47.532Z,102980.91
2018-12-15T21:53:16.628Z,102979.64
2018-12-15T21:55:45.709Z,102970.48
2018-12-15T21:58:14.771Z,102968.30
2018-12-15T22:00:43.887Z,102969.77
2018-12-15T22:03:12.968Z,102963.38
2018-12-15T22:05:42.028Z,102966.59
2018-12-15T22:08:11.126Z,102967.83
2018-12-15T22:10:40.188Z,102955.92
2018-12-15T22:13:09.252Z,102945.63
2018-12-15T22:15:38.339Z,102942.17
2018-12-15T22:18:07.405Z,102943.41
2018-12-15T22:20:36.467Z,102942.29
2018-12-15T22:23:05.593Z,102943.45
2018-12-15T22:25:34.636Z,102938.17
2018-12-15T22:28:03.704Z,102937.54
2018-12-15T22:30:32.785Z,102932.97
2018-12-15T22:33:01.846Z,102925.42
2018-12-15T22:35:30.902Z,102925.60
2018-12-15T22:37:59.985Z,102928.36
2018-12-15T22:40:29.050Z,102921.59
2018-12-15T22:42:58.109Z,102918.51
2018-12-15T22:45:27.208Z,102918.90
2018-12-15T22:47:56.272Z,102919.13
2018-12-15T22:50:25.339Z,102912.55
2018-12-15T22:52:54.523Z,102906.16
2018-12-15T22:55:23.590Z,102911.16
2018-12-15T22:57:52.652Z,102913.56
2018-12-15T23:00:21.748Z,102916.12
2018-12-15T23:02:50.804Z,102910.25
2018-12-15T23:05:19.876Z,102902.48
2018-12-15T23:07:48.969Z,102903.28
2018-12-15T23:10:18.024Z,102905.41
2018-12-15T23:12:47.093Z,102902.91
2018-12-15T23:15:16.229Z,102906.82
2018-12-15T23:17:45.285Z,102897.63
2018-12-15T23:20:14.352Z,102893.72
2018-12-15T23:22:43.426Z,102903.09
2018-12-15T23:25:12.468Z,102896.89
2018-12-15T23:27:41.536Z,102894.12
2018-12-15T23:30:10.634Z,102893.34
2018-12-15T23:32:39.696Z,102891.80
2018-12-15T23:35:08.752Z,102889.47
2018-12-15T23:37:37.863Z,102883.53
2018-12-15T23:40:06.973Z,102883.37
2018-12-15T23:42:36.054Z,102881.25
2018-12-15T23:45:05.144Z,102879.56
2018-12-15T23:47:34.194Z,102871.66
2018-12-15T23:50:03.247Z,102877.33
2018-12-15T23:52:32.453Z,102865.20
2018-12-15T23:55:01.533Z,102859.80
2018-12-15T23:57:30.584Z,102852.02
2018-12-15T23:59:59.682Z,102845.23
